Time;durP1;ratioP1;P1;durP2;ratioP2;P2;SDS_P1;SDS_P2;PMS_P1;PMS_P2;Temp;Humidity;BMP_temperature;BMP_pressure;BME280_temperature;BME280_humidity;BME280_pressure;Samples;Min_cycle;Max_cycle;Signal;HPM_P1;HPM_P2
2022/10/14 00:01:13;;;;;;;5.63;1.40;;;;;;;;;;5065516;28;20039;-73
2022/10/14 00:03:39;;;;;;;4.20;1.40;;;;;;;;;;5066573;28;20048;-73
2022/10/14 00:06:08;;;;;;;4.55;1.50;;;;;;;;;;5066721;28;20092;-74
2022/10/14 00:08:33;;;;;;;4.82;1.38;;;;;;;;;;5066425;28;20032;-75
2022/10/14 00:11:04;;;;;;;6.35;1.35;;;;;;;;;;5066680;28;20025;-75
2022/10/14 00:13:29;;;;;;;;;;;;;;;;;;5066907;28;20328;-75
2022/10/14 00:15:55;;;;;;;4.78;1.55;;;;;;;;;;5066005;28;19916;-75
2022/10/14 00:18:20;;;;;;;5.38;1.45;;;;;;;;;;5047662;28;20031;-75
2022/10/14 00:20:53;;;;;;;3.83;1.50;;;;;;;;;;5065278;28;20366;-73
2022/10/14 00:23:19;;;;;;;8.25;1.70;;;;;;;;;;5066240;28;20033;-74
2022/10/14 00:25:44;;;;;;;4.43;1.23;;;;;;;;;;5065357;28;20025;-74
2022/10/14 00:28:09;;;;;;;2.92;1.35;;;;;;;;;;5065038;28;20025;-74
2022/10/14 00:30:35;;;;;;;4.38;1.40;;;;;;;;;;5065910;28;20024;-74
2022/10/14 00:33:00;;;;;;;3.30;1.35;;;;;;;;;;5066222;28;20036;-73
2022/10/14 00:35:26;;;;;;;2.72;1.23;;;;;;;;;;5066165;28;20021;-74
2022/10/14 00:37:51;;;;;;;4.53;1.50;;;;;;;;;;5065923;28;20093;-74
2022/10/14 00:40:17;;;;;;;3.17;1.33;;;;;;;;;;5066124;28;20028;-74
2022/10/14 00:42:42;;;;;;;2.47;1.15;;;;;;;;;;5064891;28;20025;-74
2022/10/14 00:45:14;;;;;;;2.95;1.27;;;;;;;;;;5065281;28;20049;-70
2022/10/14 00:47:41;;;;;;;4.40;1.30;;;;;;;;;;5064793;28;20032;-70
2022/10/14 00:50:07;;;;;;;2.83;1.10;;;;;;;;;;5065270;28;20369;-71
2022/10/14 00:52:33;;;;;;;4.20;1.42;;;;;;;;;;5064319;28;20243;-70
2022/10/14 00:55:06;;;;;;;3.22;1.20;;;;;;;;;;5064481;28;20035;-70
2022/10/14 00:57:34;;;;;;;3.30;1.17;;;;;;;;;;5064074;28;20029;-70
2022/10/14 01:00:06;;;;;;;4.53;1.15;;;;;;;;;;5063724;28;20037;-70
2022/10/14 01:02:32;;;;;;;3.95;1.42;;;;;;;;;;5064147;28;20025;-71
2022/10/14 01:04:59;;;;;;;2.90;1.20;;;;;;;;;;5064040;28;20029;-70
2022/10/14 01:07:31;;;;;;;5.45;1.30;;;;;;;;;;5063812;28;20035;-69
2022/10/14 01:10:22;;;;;;;4.65;1.38;;;;;;;;;;5064016;28;20032;-70
2022/10/14 01:12:54;;;;;;;2.30;1.00;;;;;;;;;;5063584;28;20116;-71
2022/10/14 01:15:36;;;;;;;2.85;1.08;;;;;;;;;;5064517;28;20025;-71
2022/10/14 01:18:16;;;;;;;2.33;1.13;;;;;;;;;;5064113;28;20243;-70
2022/10/14 01:20:56;;;;;;;1.90;1.02;;;;;;;;;;5063821;28;20034;-71
2022/10/14 01:23:49;;;;;;;1.80;1.03;;;;;;;;;;5063799;28;20037;-71
2022/10/14 01:26:17;;;;;;;2.15;1.02;;;;;;;;;;5063429;28;20217;-71
2022/10/14 01:28:53;;;;;;;2.00;1.00;;;;;;;;;;5063628;28;20029;-70
2022/10/14 01:31:29;;;;;;;4.72;0.90;;;;;;;;;;5063663;28;20114;-72
2022/10/14 01:33:58;;;;;;;3.83;1.02;;;;;;;;;;5064024;28;20053;-71
2022/10/14 01:36:27;;;;;;;2.22;0.93;;;;;;;;;;5063812;28;20021;-71
2022/10/14 01:38:59;;;;;;;1.52;0.98;;;;;;;;;;5063625;28;20267;-71
2022/10/14 01:41:29;;;;;;;2.42;1.05;;;;;;;;;;5045645;28;20214;-72
2022/10/14 01:43:59;;;;;;;1.95;0.80;;;;;;;;;;5063306;28;20060;-71
2022/10/14 01:46:26;;;;;;;2.78;0.90;;;;;;;;;;5063401;28;20332;-73
2022/10/14 01:49:01;;;;;;;2.38;1.00;;;;;;;;;;5063910;28;20028;-73
2022/10/14 01:51:35;;;;;;;1.90;0.70;;;;;;;;;;5063776;28;20017;-73
2022/10/14 01:54:10;;;;;;;3.05;0.70;;;;;;;;;;5062343;28;20096;-73
2022/10/14 01:56:37;;;;;;;2.03;1.10;;;;;;;;;;5063129;28;20021;-73
2022/10/14 01:59:03;;;;;;;1.90;0.70;;;;;;;;;;5063321;28;20021;-73
2022/10/14 02:01:29;;;;;;;2.50;0.88;;;;;;;;;;5063063;28;20029;-73
2022/10/14 02:03:55;;;;;;;1.23;0.70;;;;;;;;;;5063208;28;20056;-73
2022/10/14 02:06:28;;;;;;;2.00;0.70;;;;;;;;;;5062662;28;20296;-73
2022/10/14 02:09:15;;;;;;;1.42;0.70;;;;;;;;;;5063164;28;20036;-71
2022/10/14 02:11:51;;;;;;;0.80;0.60;;;;;;;;;;5062868;28;20120;-71
2022/10/14 02:14:36;;;;;;;0.80;0.60;;;;;;;;;;5062963;28;20044;-71
2022/10/14 02:17:12;;;;;;;3.13;0.80;;;;;;;;;;5012407;28;20359;-71
2022/10/14 02:20:03;;;;;;;1.95;0.70;;;;;;;;;;5063222;28;20031;-72
2022/10/14 02:22:40;;;;;;;;;;;;;;;;;;5062846;28;20044;-73
2022/10/14 02:25:20;;;;;;;0.80;0.47;;;;;;;;;;5063085;28;20011;-72
2022/10/14 02:27:48;;;;;;;1.15;0.70;;;;;;;;;;5062532;28;20029;-70
2022/10/14 02:30:15;;;;;;;1.17;0.60;;;;;;;;;;5062892;28;20092;-73
2022/10/14 02:32:42;;;;;;;0.60;0.50;;;;;;;;;;5062665;28;20370;-73
2022/10/14 02:35:09;;;;;;;1.77;0.70;;;;;;;;;;5062395;28;20100;-73
2022/10/14 02:37:37;;;;;;;2.50;0.70;;;;;;;;;;5062853;28;20028;-73
2022/10/14 02:40:32;;;;;;;1.70;0.60;;;;;;;;;;5062671;28;20194;-73
2022/10/14 02:42:58;;;;;;;0.80;0.50;;;;;;;;;;5059954;28;20036;-73
2022/10/14 02:45:28;;;;;;;1.00;0.65;;;;;;;;;;5062561;28;20208;-73
2022/10/14 02:47:54;;;;;;;1.48;0.50;;;;;;;;;;5062737;28;20277;-74
2022/10/14 02:50:20;;;;;;;1.10;0.50;;;;;;;;;;5062405;28;20029;-74
2022/10/14 02:52:45;;;;;;;1.20;0.60;;;;;;;;;;5062276;28;20033;-73
2022/10/14 02:55:11;;;;;;;2.15;0.70;;;;;;;;;;5062248;28;20028;-73
2022/10/14 02:57:36;;;;;;;1.30;0.60;;;;;;;;;;5062153;28;20408;-73
2022/10/14 03:00:04;;;;;;;2.72;0.70;;;;;;;;;;5062358;28;20025;-73
2022/10/14 03:02:30;;;;;;;1.35;0.63;;;;;;;;;;5062438;28;20142;-73
2022/10/14 03:04:57;;;;;;;2.28;0.60;;;;;;;;;;5063563;28;20025;-73
2022/10/14 03:07:22;;;;;;;0.93;0.55;;;;;;;;;;5066641;28;20025;-73
2022/10/14 03:09:48;;;;;;;2.83;0.70;;;;;;;;;;5065951;28;20067;-73
2022/10/14 03:12:13;;;;;;;2.20;0.65;;;;;;;;;;5066115;28;20364;-73
2022/10/14 03:14:39;;;;;;;1.20;0.60;;;;;;;;;;5066095;28;20021;-72
2022/10/14 03:17:04;;;;;;;2.42;0.60;;;;;;;;;;5066851;28;20123;-73
2022/10/14 03:19:29;;;;;;;0.65;0.50;;;;;;;;;;5066315;28;20242;-72
2022/10/14 03:21:55;;;;;;;2.60;0.50;;;;;;;;;;5066115;28;20021;-72
2022/10/14 03:24:20;;;;;;;1.42;0.50;;;;;;;;;;5065982;28;20021;-73
2022/10/14 03:26:46;;;;;;;2.17;0.60;;;;;;;;;;5065650;28;20127;-72
2022/10/14 03:29:11;;;;;;;1.02;0.57;;;;;;;;;;5065742;28;20039;-71
2022/10/14 03:31:36;;;;;;;2.00;0.60;;;;;;;;;;5065534;28;20049;-71
2022/10/14 03:34:02;;;;;;;2.42;0.73;;;;;;;;;;5065662;28;20032;-71
2022/10/14 03:36:27;;;;;;;1.15;0.60;;;;;;;;;;5066338;28;20052;-71
2022/10/14 03:38:53;;;;;;;1.58;0.60;;;;;;;;;;5048301;28;20068;-70
2022/10/14 03:41:18;;;;;;;2.13;0.70;;;;;;;;;;5066459;28;20096;-70
2022/10/14 03:43:44;;;;;;;1.45;0.60;;;;;;;;;;5066358;28;20033;-70
2022/10/14 03:46:09;;;;;;;2.78;0.60;;;;;;;;;;5067125;28;20025;-70
2022/10/14 03:48:34;;;;;;;1.98;0.70;;;;;;;;;;5066484;28;20028;-70
2022/10/14 03:51:00;;;;;;;0.88;0.60;;;;;;;;;;5065998;28;20078;-70
2022/10/14 03:53:25;;;;;;;2.08;0.80;;;;;;;;;;5066520;28;20035;-70
2022/10/14 03:55:50;;;;;;;3.95;0.60;;;;;;;;;;5066880;28;20028;-70
2022/10/14 03:58:16;;;;;;;1.65;0.60;;;;;;;;;;5048962;28;20037;-70
2022/10/14 04:00:41;;;;;;;1.77;0.80;;;;;;;;;;5065663;28;20052;-70
2022/10/14 04:03:07;;;;;;;1.10;0.60;;;;;;;;;;5065432;28;20247;-70
2022/10/14 04:05:33;;;;;;;1.95;0.70;;;;;;;;;;5065202;28;20100;-71
2022/10/14 04:08:00;;;;;;;2.45;0.70;;;;;;;;;;5065371;28;20036;-71
2022/10/14 04:10:25;;;;;;;2.80;0.65;;;;;;;;;;5066183;28;20033;-71
2022/10/14 04:12:54;;;;;;;5.78;0.77;;;;;;;;;;5066413;28;20088;-71
2022/10/14 04:15:21;;;;;;;1.27;0.70;;;;;;;;;;5066579;28;20025;-71
2022/10/14 04:17:46;;;;;;;2.05;0.70;;;;;;;;;;5064624;28;20025;-71
2022/10/14 04:20:12;;;;;;;2.03;0.80;;;;;;;;;;5064806;28;20425;-71
2022/10/14 04:22:37;;;;;;;2.83;0.70;;;;;;;;;;5065894;28;20048;-74
2022/10/14 04:25:04;;;;;;;2.03;0.60;;;;;;;;;;5066195;28;20024;-74
2022/10/14 04:27:29;;;;;;;1.67;0.75;;;;;;;;;;5065433;28;20033;-71
2022/10/14 04:29:55;;;;;;;2.00;0.55;;;;;;;;;;5066278;28;20025;-71
2022/10/14 04:32:20;;;;;;;0.50;0.40;;;;;;;;;;5065995;28;20104;-70
2022/10/14 04:34:46;;;;;;;1.05;0.50;;;;;;;;;;5065866;28;20320;-72
2022/10/14 04:37:12;;;;;;;1.35;0.60;;;;;;;;;;5064849;28;20056;-73
2022/10/14 04:39:37;;;;;;;0.63;0.55;;;;;;;;;;5046753;28;20024;-73
2022/10/14 04:42:03;;;;;;;0.90;0.50;;;;;;;;;;5064360;28;20028;-73
2022/10/14 04:44:28;;;;;;;1.13;0.57;;;;;;;;;;5064744;28;20336;-73
2022/10/14 04:46:54;;;;;;;1.30;0.40;;;;;;;;;;5064687;28;20021;-73
2022/10/14 04:49:19;;;;;;;0.63;0.50;;;;;;;;;;5064667;28;20089;-73
2022/10/14 04:51:45;;;;;;;1.45;0.40;;;;;;;;;;5065231;28;20036;-71
2022/10/14 04:54:10;;;;;;;2.45;0.68;;;;;;;;;;5064312;28;20216;-73
2022/10/14 04:56:36;;;;;;;1.67;0.50;;;;;;;;;;5064438;28;20028;-72
2022/10/14 04:59:01;;;;;;;0.52;0.40;;;;;;;;;;5064504;28;20059;-72
2022/10/14 05:01:27;;;;;;;2.03;0.47;;;;;;;;;;5064670;28;20096;-73
2022/10/14 05:03:52;;;;;;;3.65;0.70;;;;;;;;;;5062660;28;20033;-72
2022/10/14 05:06:18;;;;;;;3.13;0.80;;;;;;;;;;5060151;28;20028;-72
2022/10/14 05:08:43;;;;;;;2.50;0.65;;;;;;;;;;5064108;28;20092;-74
2022/10/14 05:11:08;;;;;;;2.95;0.60;;;;;;;;;;5063849;28;20033;-73
2022/10/14 05:13:34;;;;;;;1.60;0.60;;;;;;;;;;5064441;28;20071;-74
2022/10/14 05:16:01;;;;;;;2.28;0.60;;;;;;;;;;5063652;28;20418;-73
2022/10/14 05:18:27;;;;;;;1.48;0.60;;;;;;;;;;5064081;28;20057;-73
2022/10/14 05:20:52;;;;;;;2.70;0.70;;;;;;;;;;5063949;28;20040;-73
2022/10/14 05:23:18;;;;;;;1.27;0.50;;;;;;;;;;5064048;28;20065;-73
2022/10/14 05:25:43;;;;;;;2.00;0.52;;;;;;;;;;5064146;28;20021;-74
2022/10/14 05:28:09;;;;;;;1.55;0.50;;;;;;;;;;5065162;28;20032;-72
2022/10/14 05:30:34;;;;;;;1.58;0.60;;;;;;;;;;5064306;28;20033;-73
2022/10/14 05:33:00;;;;;;;1.13;0.40;;;;;;;;;;5064272;28;20092;-73
2022/10/14 05:35:25;;;;;;;1.58;0.43;;;;;;;;;;5046495;28;20291;-73
2022/10/14 05:37:57;;;;;;;2.28;0.60;;;;;;;;;;5065081;28;20029;-72
2022/10/14 05:40:23;;;;;;;3.17;0.82;;;;;;;;;;5065112;28;20135;-72
2022/10/14 05:42:48;;;;;;;2.03;0.70;;;;;;;;;;5064091;28;20239;-71
2022/10/14 05:45:14;;;;;;;1.65;0.50;;;;;;;;;;5064786;28;20047;-72
2022/10/14 05:47:42;;;;;;;2.67;0.60;;;;;;;;;;5063574;28;20033;-72
2022/10/14 05:50:07;;;;;;;2.00;0.70;;;;;;;;;;5063148;28;20029;-73
2022/10/14 05:52:34;;;;;;;1.08;0.55;;;;;;;;;;5062929;28;20116;-72
2022/10/14 05:54:59;;;;;;;1.30;0.60;;;;;;;;;;5063371;28;20190;-73
2022/10/14 05:57:26;;;;;;;1.20;0.57;;;;;;;;;;5063352;28;20380;-72
2022/10/14 05:59:52;;;;;;;2.20;0.60;;;;;;;;;;5063185;28;20025;-71
2022/10/14 06:02:17;;;;;;;2.38;0.70;;;;;;;;;;5063531;28;20031;-72
2022/10/14 06:04:43;;;;;;;4.80;0.80;;;;;;;;;;5046577;28;20029;-72
2022/10/14 06:07:09;;;;;;;3.72;0.90;;;;;;;;;;5063946;28;20025;-73
2022/10/14 06:09:35;;;;;;;2.25;0.70;;;;;;;;;;5062747;28;20375;-72
2022/10/14 06:12:01;;;;;;;3.78;0.80;;;;;;;;;;5063849;28;20041;-70
2022/10/14 06:14:27;;;;;;;2.00;0.70;;;;;;;;;;5064329;28;20025;-70
2022/10/14 06:16:52;;;;;;;2.50;0.90;;;;;;;;;;5064177;28;20024;-71
2022/10/14 06:19:17;;;;;;;1.52;0.70;;;;;;;;;;5064257;28;20308;-70
2022/10/14 06:21:43;;;;;;;0.90;0.70;;;;;;;;;;5062974;28;20032;-71
2022/10/14 06:24:09;;;;;;;2.05;0.75;;;;;;;;;;5062810;28;20370;-71
2022/10/14 06:26:35;;;;;;;2.28;0.85;;;;;;;;;;5062217;28;20043;-71
2022/10/14 06:29:01;;;;;;;1.85;0.63;;;;;;;;;;5063651;28;20020;-71
2022/10/14 06:31:26;;;;;;;1.50;0.70;;;;;;;;;;5063709;28;20112;-71
2022/10/14 06:33:52;;;;;;;1.05;0.63;;;;;;;;;;5063448;28;20020;-71
2022/10/14 06:36:17;;;;;;;1.50;0.60;;;;;;;;;;5063158;28;20017;-72
2022/10/14 06:38:43;;;;;;;2.22;0.80;;;;;;;;;;5062432;28;20392;-70
2022/10/14 06:41:09;;;;;;;1.35;0.88;;;;;;;;;;5062129;28;20029;-70
2022/10/14 06:43:34;;;;;;;4.70;0.90;;;;;;;;;;5063317;28;20025;-70
2022/10/14 06:46:00;;;;;;;1.50;0.65;;;;;;;;;;5062476;28;20048;-69
2022/10/14 06:48:26;;;;;;;1.90;0.73;;;;;;;;;;5062996;28;20028;-70
2022/10/14 06:50:51;;;;;;;2.05;1.02;;;;;;;;;;5063985;28;20025;-71
2022/10/14 06:53:17;;;;;;;3.55;1.40;;;;;;;;;;5063764;28;20028;-71
2022/10/14 06:55:43;;;;;;;3.13;1.10;;;;;;;;;;5045802;28;20032;-71
2022/10/14 06:58:08;;;;;;;3.40;1.20;;;;;;;;;;5063621;28;20025;-71
2022/10/14 07:00:34;;;;;;;3.28;1.10;;;;;;;;;;5063182;28;20091;-73
2022/10/14 07:02:59;;;;;;;4.03;1.27;;;;;;;;;;5045949;28;20024;-70
2022/10/14 07:05:25;;;;;;;3.53;1.35;;;;;;;;;;5062519;28;20316;-71
2022/10/14 07:07:50;;;;;;;3.10;1.02;;;;;;;;;;5044804;28;20067;-74
2022/10/14 07:10:16;;;;;;;4.50;1.20;;;;;;;;;;5062435;28;20013;-77
2022/10/14 07:12:41;;;;;;;4.90;1.20;;;;;;;;;;5061832;28;20032;-75
2022/10/14 07:15:07;;;;;;;3.67;1.10;;;;;;;;;;5061928;28;20447;-76
2022/10/14 07:17:33;;;;;;;5.05;1.42;;;;;;;;;;5062125;28;20020;-76
2022/10/14 07:19:58;;;;;;;4.80;1.38;;;;;;;;;;5061835;28;20208;-76
2022/10/14 07:22:24;;;;;;;6.28;1.20;;;;;;;;;;5061923;28;20040;-79
2022/10/14 07:24:50;;;;;;;7.10;1.30;;;;;;;;;;5061418;28;20462;-75
2022/10/14 07:27:15;;;;;;;3.63;1.13;;;;;;;;;;5062044;28;20316;-72
2022/10/14 07:29:41;;;;;;;3.85;1.30;;;;;;;;;;5062165;28;20212;-77
2022/10/14 07:32:06;;;;;;;5.63;1.33;;;;;;;;;;5061375;28;20045;-77
2022/10/14 07:34:35;;;;;;;5.43;1.65;;;;;;;;;;5061935;28;20059;-75
2022/10/14 07:37:00;;;;;;;5.30;1.20;;;;;;;;;;5061301;28;20027;-75
2022/10/14 07:39:26;;;;;;;3.83;1.30;;;;;;;;;;5061540;28;20045;-72
2022/10/14 07:41:51;;;;;;;5.07;1.30;;;;;;;;;;5061720;28;20247;-75
2022/10/14 07:44:17;;;;;;;4.90;1.38;;;;;;;;;;5062086;28;20089;-76
2022/10/14 07:46:44;;;;;;;4.07;1.30;;;;;;;;;;5061454;28;20076;-72
2022/10/14 07:49:15;;;;;;;3.75;1.30;;;;;;;;;;5061475;28;20032;-73
2022/10/14 07:51:41;;;;;;;5.07;1.60;;;;;;;;;;5062257;28;20028;-74
2022/10/14 07:54:10;;;;;;;2.97;1.05;;;;;;;;;;5064950;28;20346;-74
2022/10/14 07:56:37;;;;;;;4.72;1.50;;;;;;;;;;5065631;28;20091;-74
2022/10/14 07:59:03;;;;;;;4.35;1.30;;;;;;;;;;5060197;28;20056;-74
2022/10/14 08:01:28;;;;;;;6.25;1.27;;;;;;;;;;5061914;28;20029;-75
2022/10/14 08:03:54;;;;;;;4.18;1.40;;;;;;;;;;5062324;28;20036;-74
2022/10/14 08:06:19;;;;;;;4.25;1.17;;;;;;;;;;5059618;28;20102;-74
2022/10/14 08:08:45;;;;;;;3.40;0.98;;;;;;;;;;5061319;28;20021;-74
2022/10/14 08:11:17;;;;;;;3.55;1.00;;;;;;;;;;5060695;28;20021;-74
2022/10/14 08:13:42;;;;;;;6.07;1.20;;;;;;;;;;5062924;28;20029;-74
2022/10/14 08:16:33;;;;;;;3.55;1.00;;;;;;;;;;5063955;28;20025;-72
2022/10/14 08:19:00;;;;;;;2.95;1.23;;;;;;;;;;5053110;28;20029;-74
2022/10/14 08:21:26;;;;;;;3.30;1.05;;;;;;;;;;5059923;28;20029;-74
2022/10/14 08:23:53;;;;;;;3.08;0.95;;;;;;;;;;5059846;28;20036;-74
2022/10/14 08:26:25;;;;;;;3.63;1.20;;;;;;;;;;5058631;28;20029;-74
2022/10/14 08:28:51;;;;;;;4.78;1.30;;;;;;;;;;5058561;28;20320;-74
2022/10/14 08:31:16;;;;;;;3.88;1.00;;;;;;;;;;5059582;28;20048;-73
2022/10/14 08:33:42;;;;;;;3.53;1.33;;;;;;;;;;5065860;28;20028;-74
2022/10/14 08:36:08;;;;;;;4.30;1.20;;;;;;;;;;5066007;28;20092;-74
2022/10/14 08:38:33;;;;;;;3.95;1.30;;;;;;;;;;5066061;28;20025;-74
2022/10/14 08:41:06;;;;;;;3.38;1.10;;;;;;;;;;5065840;28;20013;-73
2022/10/14 08:43:40;;;;;;;2.10;0.90;;;;;;;;;;5065256;28;20033;-74
2022/10/14 08:46:19;;;;;;;4.32;1.10;;;;;;;;;;5065209;28;20017;-72
2022/10/14 08:48:46;;;;;;;3.83;1.10;;;;;;;;;;5065041;28;20366;-72
2022/10/14 08:51:16;;;;;;;3.42;0.98;;;;;;;;;;5061716;28;20025;-72
2022/10/14 08:54:08;;;;;;;3.03;1.30;;;;;;;;;;5064744;28;20025;-71
2022/10/14 08:56:36;;;;;;;4.25;1.20;;;;;;;;;;5064588;28;20040;-73
2022/10/14 08:59:09;;;;;;;4.00;1.17;;;;;;;;;;5064223;28;20029;-77
2022/10/14 09:01:48;;;;;;;3.38;0.93;;;;;;;;;;5064223;28;20021;-77
2022/10/14 09:04:15;;;;;;;3.57;1.00;;;;;;;;;;5064465;28;20024;-77
2022/10/14 09:06:45;;;;;;;3.53;1.00;;;;;;;;;;5064620;28;20036;-78
2022/10/14 09:09:23;;;;;;;3.85;0.82;;;;;;;;;;5064573;28;20024;-76
2022/10/14 09:11:53;;;;;;;3.05;1.10;;;;;;;;;;5064316;28;20044;-76
2022/10/14 09:14:23;;;;;;;2.50;1.10;;;;;;;;;;5064296;28;20036;-76
2022/10/14 09:16:54;;;;;;;2.75;0.90;;;;;;;;;;5064104;28;20035;-77
2022/10/14 09:19:38;;;;;;;2.80;1.30;;;;;;;;;;5064548;28;20039;-76
2022/10/14 09:22:11;;;;;;;3.28;1.00;;;;;;;;;;5046846;28;20028;-76
2022/10/14 09:24:37;;;;;;;2.72;0.88;;;;;;;;;;5064725;28;20054;-76
2022/10/14 09:27:12;;;;;;;4.53;0.90;;;;;;;;;;5064293;28;20025;-76
2022/10/14 09:29:57;;;;;;;3.55;0.90;;;;;;;;;;5062663;28;20452;-77
2022/10/14 09:32:33;;;;;;;3.08;1.02;;;;;;;;;;5056677;28;20052;-77
2022/10/14 09:34:59;;;;;;;3.60;1.08;;;;;;;;;;5043651;28;20035;-76
2022/10/14 09:37:30;;;;;;;3.13;1.13;;;;;;;;;;5060771;28;20041;-77
2022/10/14 09:40:25;;;;;;;2.72;0.93;;;;;;;;;;5040811;28;20309;-76
2022/10/14 09:42:54;;;;;;;2.92;1.10;;;;;;;;;;5061784;28;20097;-77
2022/10/14 09:45:22;;;;;;;3.35;0.95;;;;;;;;;;5060921;28;20051;-78
2022/10/14 09:48:03;;;;;;;7.03;1.10;;;;;;;;;;5045868;28;20070;-76
2022/10/14 09:50:39;;;;;;;2.53;0.90;;;;;;;;;;5055301;28;20043;-76
2022/10/14 09:53:16;;;;;;;1.67;0.90;;;;;;;;;;5058876;28;20087;-78
2022/10/14 09:55:47;;;;;;;4.28;1.10;;;;;;;;;;5064104;28;20253;-76
2022/10/14 09:58:17;;;;;;;2.45;1.00;;;;;;;;;;5064671;28;20259;-76
2022/10/14 10:00:44;;;;;;;3.67;1.00;;;;;;;;;;5064872;28;20017;-76
2022/10/14 10:03:24;;;;;;;4.88;1.17;;;;;;;;;;5063738;28;20271;-76
2022/10/14 10:06:00;;;;;;;2.75;1.13;;;;;;;;;;5064509;28;20025;-76
2022/10/14 10:08:26;;;;;;;3.63;1.00;;;;;;;;;;5064456;28;20036;-76
2022/10/14 10:11:03;;;;;;;3.83;1.20;;;;;;;;;;5064569;28;20044;-80
2022/10/14 10:13:43;;;;;;;3.95;1.50;;;;;;;;;;5063732;28;20409;-79
2022/10/14 10:16:18;;;;;;;5.32;1.40;;;;;;;;;;5063176;28;20316;-79
2022/10/14 10:18:43;;;;;;;3.75;1.27;;;;;;;;;;5063688;28;20029;-78
2022/10/14 10:21:17;;;;;;;2.35;1.00;;;;;;;;;;5064417;28;20039;-78
2022/10/14 10:23:52;;;;;;;5.40;1.20;;;;;;;;;;5064543;28;20037;-76
2022/10/14 10:26:28;;;;;;;4.82;1.00;;;;;;;;;;5063974;28;20029;-78
2022/10/14 10:28:56;;;;;;;3.80;0.90;;;;;;;;;;5064091;28;20201;-78
2022/10/14 10:31:46;;;;;;;2.88;1.13;;;;;;;;;;5063751;28;20176;-77
2022/10/14 10:34:22;;;;;;;4.28;1.10;;;;;;;;;;5063055;28;20044;-76
2022/10/14 10:36:56;;;;;;;4.97;1.10;;;;;;;;;;5063728;28;20029;-79
2022/10/14 10:39:27;;;;;;;6.60;1.20;;;;;;;;;;5064217;28;20205;-80
2022/10/14 10:42:06;;;;;;;4.40;1.10;;;;;;;;;;5063941;28;20032;-78
2022/10/14 10:44:46;;;;;;;3.25;1.10;;;;;;;;;;5064030;28;20047;-76
2022/10/14 10:47:39;;;;;;;;;;;;;;;;;;5064529;28;20032;-76
2022/10/14 10:50:20;;;;;;;4.05;0.88;;;;;;;;;;5059880;28;19909;-76
2022/10/14 10:52:58;;;;;;;6.10;1.10;;;;;;;;;;5063852;28;20025;-75
2022/10/14 10:55:34;;;;;;;6.18;1.20;;;;;;;;;;5064079;28;20091;-75
2022/10/14 10:58:37;;;;;;;6.10;1.25;;;;;;;;;;5046088;28;20059;-76
2022/10/14 11:01:05;;;;;;;5.07;1.33;;;;;;;;;;5063904;28;20044;-78
2022/10/14 11:03:42;;;;;;;4.30;1.50;;;;;;;;;;5063853;28;20029;-79
2022/10/14 11:12:30;;;;;;;2.90;0.95;;;;;;;;;;5014304;28;20029;-79
2022/10/14 11:15:20;;;;;;;4.15;1.08;;;;;;;;;;5064103;28;20048;-80
2022/10/14 11:17:51;;;;;;;2.25;0.77;;;;;;;;;;5063765;28;20052;-79
2022/10/14 11:20:38;;;;;;;2.53;0.80;;;;;;;;;;5063668;28;20100;-80
2022/10/14 11:23:25;;;;;;;2.35;0.90;;;;;;;;;;5063929;28;20247;-77
2022/10/14 11:26:12;;;;;;;3.22;0.82;;;;;;;;;;5064575;28;20028;-75
2022/10/14 11:28:43;;;;;;;3.25;1.10;;;;;;;;;;5049750;28;20017;-77
2022/10/14 11:31:24;;;;;;;5.47;1.25;;;;;;;;;;5067582;28;20037;-79
2022/10/14 11:36:38;;;;;;;4.90;1.10;;;;;;;;;;5006114;28;20046;-78
2022/10/14 11:39:22;;;;;;;3.55;0.85;;;;;;;;;;5007337;28;20036;-78
2022/10/14 11:42:01;;;;;;;3.15;0.90;;;;;;;;;;4988685;28;20062;-76
2022/10/14 11:44:39;;;;;;;3.53;0.82;;;;;;;;;;5005848;28;20025;-74
2022/10/14 11:47:13;;;;;;;3.33;0.95;;;;;;;;;;5006255;28;20030;-75
2022/10/14 11:49:53;;;;;;;4.25;1.00;;;;;;;;;;4988467;28;20214;-78
2022/10/14 11:52:29;;;;;;;2.58;0.80;;;;;;;;;;5005902;28;20318;-81
2022/10/14 11:55:01;;;;;;;2.70;0.90;;;;;;;;;;5006454;28;20333;-82
2022/10/14 11:57:36;;;;;;;2.10;0.80;;;;;;;;;;5005940;28;20025;-81
2022/10/14 12:03:23;;;;;;;3.95;0.60;;;;;;;;;;5006339;28;20036;-83
2022/10/14 12:06:09;;;;;;;1.60;0.90;;;;;;;;;;4988170;28;20030;-80
2022/10/14 12:08:56;;;;;;;1.98;0.98;;;;;;;;;;5005727;28;20439;-81
2022/10/14 12:12:08;;;;;;;4.15;0.95;;;;;;;;;;5006378;28;20034;-79
2022/10/14 12:14:38;;;;;;;3.70;1.08;;;;;;;;;;4892189;29;20068;-80
2022/10/14 12:17:31;;;;;;;3.57;0.90;;;;;;;;;;4995666;28;20034;-81
2022/10/14 12:20:00;;;;;;;2.80;0.90;;;;;;;;;;4992039;28;20034;-82
2022/10/14 12:22:30;;;;;;;1.33;0.90;;;;;;;;;;5005308;28;20333;-80
2022/10/14 12:25:00;;;;;;;2.28;0.82;;;;;;;;;;5005779;28;20080;-80
2022/10/14 12:27:27;;;;;;;2.42;1.15;;;;;;;;;;5005651;28;20092;-77
2022/10/14 12:29:57;;;;;;;2.58;0.90;;;;;;;;;;5005629;28;20029;-76
2022/10/14 12:32:26;;;;;;;;;;;;;;;;;;4988286;28;20056;-83
2022/10/14 12:35:00;;;;;;;2.78;0.88;;;;;;;;;;5005383;28;19913;-78
2022/10/14 12:37:29;;;;;;;2.35;0.90;;;;;;;;;;5005221;28;20023;-79
2022/10/14 12:40:06;;;;;;;4.70;0.80;;;;;;;;;;5005467;28;20030;-75
2022/10/14 12:42:33;;;;;;;3.17;1.10;;;;;;;;;;4987752;28;20033;-76
2022/10/14 12:45:02;;;;;;;2.80;1.05;;;;;;;;;;4988598;28;20214;-78
2022/10/14 12:47:35;;;;;;;2.17;0.90;;;;;;;;;;5005410;28;20026;-80
2022/10/14 12:50:25;;;;;;;2.95;0.85;;;;;;;;;;5005503;28;20094;-81
2022/10/14 12:53:02;;;;;;;4.05;1.00;;;;;;;;;;5005193;28;20061;-81
2022/10/14 12:55:29;;;;;;;3.55;1.00;;;;;;;;;;4988081;28;20097;-80
2022/10/14 12:58:00;;;;;;;4.95;1.20;;;;;;;;;;4988511;28;20030;-81
2022/10/14 13:00:30;;;;;;;2.47;0.90;;;;;;;;;;5005423;28;20022;-80
2022/10/14 13:02:59;;;;;;;2.78;0.77;;;;;;;;;;5004903;28;20030;-81
2022/10/14 13:05:35;;;;;;;2.35;0.70;;;;;;;;;;5004508;28;20030;-82
2022/10/14 13:08:19;;;;;;;3.05;0.80;;;;;;;;;;4987547;28;20031;-83
2022/10/14 13:10:53;;;;;;;4.65;1.00;;;;;;;;;;4987361;28;20317;-80
2022/10/14 13:13:58;;;;;;;1.45;0.90;;;;;;;;;;5004502;28;20029;-82
2022/10/14 13:16:23;;;;;;;3.45;0.80;;;;;;;;;;5003963;28;20038;-79
2022/10/14 13:18:53;;;;;;;2.47;0.60;;;;;;;;;;5005298;28;20032;-81
2022/10/14 13:21:33;;;;;;;3.50;0.80;;;;;;;;;;4987608;28;20093;-81
2022/10/14 13:24:24;;;;;;;1.13;0.50;;;;;;;;;;5004596;28;20077;-79
2022/10/14 13:26:53;;;;;;;1.17;0.40;;;;;;;;;;5004105;28;20030;-80
2022/10/14 13:29:38;;;;;;;1.23;0.55;;;;;;;;;;5004124;28;20269;-79
2022/10/14 13:32:37;;;;;;;0.88;0.40;;;;;;;;;;5004206;28;20336;-79
2022/10/14 13:35:05;;;;;;;1.63;0.57;;;;;;;;;;5004172;28;20050;-80
2022/10/14 13:37:35;;;;;;;3.78;0.60;;;;;;;;;;5004598;28;20137;-79
2022/10/14 13:40:33;;;;;;;1.50;0.50;;;;;;;;;;4987101;28;20041;-79
2022/10/14 13:43:01;;;;;;;4.00;0.70;;;;;;;;;;5004579;28;20062;-78
2022/10/14 13:46:01;;;;;;;2.30;0.68;;;;;;;;;;5004583;28;20026;-79
2022/10/14 13:48:51;;;;;;;2.83;0.70;;;;;;;;;;4986628;28;20030;-79
2022/10/14 13:51:27;;;;;;;1.77;0.60;;;;;;;;;;4991424;28;20045;-81
2022/10/14 13:54:07;;;;;;;1.15;0.50;;;;;;;;;;5003498;28;20027;-81
2022/10/14 13:56:32;;;;;;;1.20;0.55;;;;;;;;;;5003743;28;20272;-82
2022/10/14 13:58:58;;;;;;;1.20;0.50;;;;;;;;;;5003812;28;20018;-78
2022/10/14 14:01:37;;;;;;;2.60;0.57;;;;;;;;;;5003630;28;20018;-75
2022/10/14 14:04:04;;;;;;;0.80;0.30;;;;;;;;;;4986877;28;20060;-81
2022/10/14 14:06:29;;;;;;;2.35;0.40;;;;;;;;;;5004298;28;20030;-83
2022/10/14 14:08:58;;;;;;;1.17;0.50;;;;;;;;;;5004155;28;20025;-84
2022/10/14 14:11:30;;;;;;;2.47;0.35;;;;;;;;;;5004336;28;20026;-83
2022/10/14 14:14:27;;;;;;;3.10;0.50;;;;;;;;;;5003606;28;20030;-83
2022/10/14 14:16:58;;;;;;;3.45;0.90;;;;;;;;;;4950385;28;20034;-83
2022/10/14 14:19:26;;;;;;;;;;;;;;;;;;5004477;28;20026;-84
2022/10/14 14:22:28;;;;;;;2.90;0.70;;;;;;;;;;5003756;28;20209;-84
2022/10/14 14:25:10;;;;;;;2.55;0.50;;;;;;;;;;4906152;29;20033;-84
2022/10/14 14:27:54;;;;;;;1.50;0.50;;;;;;;;;;4993779;28;20034;-78
2022/10/14 14:30:38;;;;;;;2.03;0.40;;;;;;;;;;5003949;28;20026;-83
2022/10/14 14:33:09;;;;;;;1.88;0.50;;;;;;;;;;5003685;28;20034;-83
2022/10/14 14:35:35;;;;;;;2.90;0.70;;;;;;;;;;5003432;28;20034;-85
2022/10/14 14:38:00;;;;;;;2.88;0.70;;;;;;;;;;5004002;28;20258;-80
2022/10/14 14:40:29;;;;;;;2.95;0.73;;;;;;;;;;4986235;28;20023;-76
2022/10/14 14:42:59;;;;;;;2.53;0.68;;;;;;;;;;4985787;28;20510;-80
2022/10/14 14:45:29;;;;;;;1.07;0.50;;;;;;;;;;5003297;28;20065;-80
2022/10/14 14:47:57;;;;;;;3.53;0.55;;;;;;;;;;5004272;28;20264;-82
2022/10/14 14:50:28;;;;;;;4.97;0.82;;;;;;;;;;5003589;28;20018;-80
2022/10/14 14:52:57;;;;;;;3.72;0.70;;;;;;;;;;4985791;28;20041;-77
2022/10/14 14:55:43;;;;;;;7.32;0.80;;;;;;;;;;4999997;28;20466;-78
2022/10/14 14:58:21;;;;;;;2.05;0.50;;;;;;;;;;4994276;28;20037;-81
2022/10/14 15:00:48;;;;;;;2.42;0.70;;;;;;;;;;5002529;28;20076;-77
2022/10/14 15:03:14;;;;;;;3.67;0.95;;;;;;;;;;5007075;28;20026;-78
2022/10/14 15:05:40;;;;;;;2.30;0.93;;;;;;;;;;5007094;28;20031;-79
2022/10/14 15:08:19;;;;;;;2.28;0.63;;;;;;;;;;5007350;28;20471;-78
2022/10/14 15:10:49;;;;;;;1.73;0.60;;;;;;;;;;5006988;28;20034;-77
2022/10/14 15:13:38;;;;;;;3.75;0.80;;;;;;;;;;5006800;28;20030;-76
2022/10/14 15:16:04;;;;;;;4.72;0.70;;;;;;;;;;5001372;28;20030;-78
2022/10/14 15:18:30;;;;;;;1.70;0.63;;;;;;;;;;4979865;28;20116;-78
2022/10/14 15:21:11;;;;;;;3.95;0.80;;;;;;;;;;5005828;28;20306;-77